sensor_id;sensor_type;location;lat;lon;timestamp;temperature;humidity
24085;DHT22;12268;52.110;5.548;2023-04-01T00:00:28;12.50;99.90
24085;DHT22;12268;52.110;5.548;2023-04-01T00:02:53;12.50;99.90
24085;DHT22;12268;52.110;5.548;2023-04-01T00:05:19;12.60;99.90
24085;DHT22;12268;52.110;5.548;2023-04-01T00:07:45;12.40;99.90
24085;DHT22;12268;52.110;5.548;2023-04-01T00:10:12;12.40;99.90
24085;DHT22;12268;52.110;5.548;2023-04-01T00:12:38;12.40;99.90
24085;DHT22;12268;52.110;5.548;2023-04-01T00:15:06;12.50;99.90
24085;DHT22;12268;52.110;5.548;2023-04-01T00:17:33;12.50;99.90
24085;DHT22;12268;52.110;5.548;2023-04-01T00:19:59;12.50;99.90
24085;DHT22;12268;52.110;5.548;2023-04-01T00:22:25;12.50;99.90
24085;DHT22;12268;52.110;5.548;2023-04-01T00:24:51;12.50;99.90
24085;DHT22;12268;52.110;5.548;2023-04-01T00:27:17;12.60;99.90
24085;DHT22;12268;52.110;5.548;2023-04-01T00:29:44;12.60;99.90
24085;DHT22;12268;52.110;5.548;2023-04-01T00:32:10;12.80;99.90
24085;DHT22;12268;52.110;5.548;2023-04-01T00:34:36;12.90;99.90
24085;DHT22;12268;52.110;5.548;2023-04-01T00:37:02;12.70;99.90
24085;DHT22;12268;52.110;5.548;2023-04-01T00:39:31;12.80;99.90
24085;DHT22;12268;52.110;5.548;2023-04-01T00:41:58;12.60;99.90
24085;DHT22;12268;52.110;5.548;2023-04-01T00:44:26;12.50;99.90
24085;DHT22;12268;52.110;5.548;2023-04-01T00:46:52;12.40;99.90
24085;DHT22;12268;52.110;5.548;2023-04-01T00:49:20;12.40;99.90
24085;DHT22;12268;52.110;5.548;2023-04-01T00:51:51;12.20;99.90
24085;DHT22;12268;52.110;5.548;2023-04-01T00:54:19;12.10;99.90
24085;DHT22;12268;52.110;5.548;2023-04-01T00:56:53;12.10;99.90
24085;DHT22;12268;52.110;5.548;2023-04-01T00:59:34;12.00;99.90
24085;DHT22;12268;52.110;5.548;2023-04-01T01:02:07;12.00;99.90
24085;DHT22;12268;52.110;5.548;2023-04-01T01:04:34;12.00;99.90
24085;DHT22;12268;52.110;5.548;2023-04-01T01:13:17;12.00;99.90
24085;DHT22;12268;52.110;5.548;2023-04-01T01:16:15;12.10;99.90
24085;DHT22;12268;52.110;5.548;2023-04-01T01:18:57;12.20;99.90
24085;DHT22;12268;52.110;5.548;2023-04-01T01:21:38;12.20;99.90
24085;DHT22;12268;52.110;5.548;2023-04-01T01:27:00;11.90;99.90
24085;DHT22;12268;52.110;5.548;2023-04-01T01:35:09;11.60;99.90
24085;DHT22;12268;52.110;5.548;2023-04-01T01:37:38;11.60;99.90
24085;DHT22;12268;52.110;5.548;2023-04-01T01:40:07;11.60;99.90
24085;DHT22;12268;52.110;5.548;2023-04-01T01:42:36;11.60;99.90
24085;DHT22;12268;52.110;5.548;2023-04-01T01:45:04;11.60;99.90
24085;DHT22;12268;52.110;5.548;2023-04-01T01:47:32;11.60;99.90
24085;DHT22;12268;52.110;5.548;2023-04-01T01:49:59;11.60;99.90
24085;DHT22;12268;52.110;5.548;2023-04-01T01:52:27;11.60;99.90
24085;DHT22;12268;52.110;5.548;2023-04-01T01:54:55;11.70;99.90
24085;DHT22;12268;52.110;5.548;2023-04-01T01:57:26;11.70;99.90
24085;DHT22;12268;52.110;5.548;2023-04-01T01:59:56;11.50;99.90
24085;DHT22;12268;52.110;5.548;2023-04-01T02:02:24;11.40;99.90
24085;DHT22;12268;52.110;5.548;2023-04-01T02:04:51;11.40;99.90
24085;DHT22;12268;52.110;5.548;2023-04-01T02:07:26;11.40;99.90
24085;DHT22;12268;52.110;5.548;2023-04-01T04:20:13;12.50;99.90
24085;DHT22;12268;52.110;5.548;2023-04-01T04:22:39;12.50;99.90
24085;DHT22;12268;52.110;5.548;2023-04-01T04:25:05;12.60;99.90
24085;DHT22;12268;52.110;5.548;2023-04-01T04:27:30;12.60;99.90
24085;DHT22;12268;52.110;5.548;2023-04-01T04:29:56;12.70;99.90
24085;DHT22;12268;52.110;5.548;2023-04-01T04:32:21;12.80;99.90
24085;DHT22;12268;52.110;5.548;2023-04-01T04:34:47;12.90;99.90
24085;DHT22;12268;52.110;5.548;2023-04-01T04:37:12;13.00;99.90
24085;DHT22;12268;52.110;5.548;2023-04-01T04:39:38;13.10;99.90
24085;DHT22;12268;52.110;5.548;2023-04-01T04:42:04;13.30;99.90
24085;DHT22;12268;52.110;5.548;2023-04-01T04:44:30;13.30;99.90
24085;DHT22;12268;52.110;5.548;2023-04-01T04:46:56;13.30;99.90
24085;DHT22;12268;52.110;5.548;2023-04-01T04:49:21;13.40;99.90
24085;DHT22;12268;52.110;5.548;2023-04-01T04:51:47;13.40;99.90
24085;DHT22;12268;52.110;5.548;2023-04-01T04:54:12;13.30;99.90
24085;DHT22;12268;52.110;5.548;2023-04-01T04:56:38;13.20;99.90
24085;DHT22;12268;52.110;5.548;2023-04-01T04:59:03;13.30;99.90
24085;DHT22;12268;52.110;5.548;2023-04-01T05:01:29;13.40;99.90
24085;DHT22;12268;52.110;5.548;2023-04-01T05:03:54;13.40;99.90
24085;DHT22;12268;52.110;5.548;2023-04-01T05:06:20;13.50;99.90
24085;DHT22;12268;52.110;5.548;2023-04-01T05:08:46;13.50;99.90
24085;DHT22;12268;52.110;5.548;2023-04-01T05:11:14;13.50;99.90
24085;DHT22;12268;52.110;5.548;2023-04-01T05:13:41;13.50;99.90
24085;DHT22;12268;52.110;5.548;2023-04-01T05:16:15;13.60;99.90
24085;DHT22;12268;52.110;5.548;2023-04-01T05:18:41;13.50;99.90
24085;DHT22;12268;52.110;5.548;2023-04-01T05:21:09;13.50;99.90
24085;DHT22;12268;52.110;5.548;2023-04-01T05:23:35;13.50;99.90
24085;DHT22;12268;52.110;5.548;2023-04-01T05:26:05;13.40;99.90
24085;DHT22;12268;52.110;5.548;2023-04-01T05:28:31;13.40;99.90
24085;DHT22;12268;52.110;5.548;2023-04-01T05:30:59;13.50;99.90
24085;DHT22;12268;52.110;5.548;2023-04-01T05:33:25;13.60;99.90
24085;DHT22;12268;52.110;5.548;2023-04-01T05:35:50;13.60;99.90
24085;DHT22;12268;52.110;5.548;2023-04-01T05:38:16;13.60;99.90
24085;DHT22;12268;52.110;5.548;2023-04-01T05:40:41;13.60;99.90
24085;DHT22;12268;52.110;5.548;2023-04-01T05:43:07;13.50;99.90
24085;DHT22;12268;52.110;5.548;2023-04-01T05:45:33;13.60;99.90
24085;DHT22;12268;52.110;5.548;2023-04-01T05:47:59;13.60;99.90
24085;DHT22;12268;52.110;5.548;2023-04-01T05:50:24;13.40;99.90
24085;DHT22;12268;52.110;5.548;2023-04-01T05:52:50;13.30;99.90
24085;DHT22;12268;52.110;5.548;2023-04-01T05:55:15;13.30;99.90
24085;DHT22;12268;52.110;5.548;2023-04-01T05:57:41;13.40;99.90
24085;DHT22;12268;52.110;5.548;2023-04-01T06:00:07;13.50;99.90
24085;DHT22;12268;52.110;5.548;2023-04-01T06:02:32;13.30;99.90
24085;DHT22;12268;52.110;5.548;2023-04-01T06:07:36;13.10;99.90
24085;DHT22;12268;52.110;5.548;2023-04-01T06:10:12;13.10;99.90
24085;DHT22;12268;52.110;5.548;2023-04-01T06:21:23;13.40;99.90
24085;DHT22;12268;52.110;5.548;2023-04-01T06:23:56;13.30;99.90
24085;DHT22;12268;52.110;5.548;2023-04-01T06:29:29;13.40;99.90
24085;DHT22;12268;52.110;5.548;2023-04-01T06:32:16;13.30;99.90
24085;DHT22;12268;52.110;5.548;2023-04-01T06:40:54;13.50;99.90
24085;DHT22;12268;52.110;5.548;2023-04-01T06:43:40;13.40;99.90
24085;DHT22;12268;52.110;5.548;2023-04-01T06:54:11;13.30;99.90
24085;DHT22;12268;52.110;5.548;2023-04-01T06:56:42;13.30;99.90
24085;DHT22;12268;52.110;5.548;2023-04-01T06:59:28;13.30;99.90
24085;DHT22;12268;52.110;5.548;2023-04-01T07:01:59;13.40;99.90
24085;DHT22;12268;52.110;5.548;2023-04-01T07:04:35;13.40;99.90
24085;DHT22;12268;52.110;5.548;2023-04-01T07:09:56;13.30;99.90
24085;DHT22;12268;52.110;5.548;2023-04-01T07:14:58;13.40;99.90
24085;DHT22;12268;52.110;5.548;2023-04-01T07:17:33;13.40;99.90
24085;DHT22;12268;52.110;5.548;2023-04-01T07:20:20;13.30;99.90
24085;DHT22;12268;52.110;5.548;2023-04-01T07:22:49;13.20;99.90
24085;DHT22;12268;52.110;5.548;2023-04-01T07:25:25;13.20;99.90
24085;DHT22;12268;52.110;5.548;2023-04-01T07:27:55;13.20;99.90
24085;DHT22;12268;52.110;5.548;2023-04-01T07:30:23;13.20;99.90
24085;DHT22;12268;52.110;5.548;2023-04-01T07:33:23;13.30;99.90
24085;DHT22;12268;52.110;5.548;2023-04-01T07:36:03;13.20;99.90
24085;DHT22;12268;52.110;5.548;2023-04-01T07:38:48;13.10;99.90
24085;DHT22;12268;52.110;5.548;2023-04-01T07:41:32;13.10;99.90
24085;DHT22;12268;52.110;5.548;2023-04-01T07:47:25;13.00;99.90
24085;DHT22;12268;52.110;5.548;2023-04-01T07:50:25;12.90;99.90
24085;DHT22;12268;52.110;5.548;2023-04-01T08:03:28;13.20;99.90
24085;DHT22;12268;52.110;5.548;2023-04-01T08:12:56;13.30;99.90
24085;DHT22;12268;52.110;5.548;2023-04-01T08:15:19;13.40;99.90
24085;DHT22;12268;52.110;5.548;2023-04-01T08:18:15;13.50;99.90
24085;DHT22;12268;52.110;5.548;2023-04-01T08:21:01;13.50;99.90
24085;DHT22;12268;52.110;5.548;2023-04-01T08:23:37;13.50;99.90
24085;DHT22;12268;52.110;5.548;2023-04-01T08:26:10;13.50;99.90
24085;DHT22;12268;52.110;5.548;2023-04-01T08:28:45;13.40;99.90
24085;DHT22;12268;52.110;5.548;2023-04-01T08:31:23;13.40;99.90
24085;DHT22;12268;52.110;5.548;2023-04-01T08:33:53;13.50;99.90
24085;DHT22;12268;52.110;5.548;2023-04-01T08:36:24;13.50;99.90
24085;DHT22;12268;52.110;5.548;2023-04-01T08:38:56;13.50;99.90
24085;DHT22;12268;52.110;5.548;2023-04-01T08:52:43;13.50;99.90
24085;DHT22;12268;52.110;5.548;2023-04-01T09:04:00;14.00;99.90
24085;DHT22;12268;52.110;5.548;2023-04-01T09:17:23;14.10;99.90
24085;DHT22;12268;52.110;5.548;2023-04-01T09:20:27;14.10;99.90
24085;DHT22;12268;52.110;5.548;2023-04-01T09:34:37;14.40;99.90
24085;DHT22;12268;52.110;5.548;2023-04-01T09:37:18;14.60;99.90
24085;DHT22;12268;52.110;5.548;2023-04-01T10:11:15;17.10;99.90
24085;DHT22;12268;52.110;5.548;2023-04-01T10:16:21;17.00;99.90
24085;DHT22;12268;52.110;5.548;2023-04-01T10:19:07;17.40;99.90
24085;DHT22;12268;52.110;5.548;2023-04-01T10:21:57;17.60;99.90
24085;DHT22;12268;52.110;5.548;2023-04-01T10:38:02;16.90;99.90
24085;DHT22;12268;52.110;5.548;2023-04-01T11:56:32;16.70;99.90
24085;DHT22;12268;52.110;5.548;2023-04-01T12:01:48;16.80;99.90
24085;DHT22;12268;52.110;5.548;2023-04-01T12:10:14;16.50;99.90
24085;DHT22;12268;52.110;5.548;2023-04-01T12:16:00;16.70;99.90
24085;DHT22;12268;52.110;5.548;2023-04-01T12:24:48;17.00;99.90
24085;DHT22;12268;52.110;5.548;2023-04-01T12:29:44;17.50;99.90
24085;DHT22;12268;52.110;5.548;2023-04-01T12:32:37;18.40;99.90
24085;DHT22;12268;52.110;5.548;2023-04-01T12:35:19;18.80;99.90
24085;DHT22;12268;52.110;5.548;2023-04-01T12:46:16;21.50;99.90
24085;DHT22;12268;52.110;5.548;2023-04-01T12:49:18;20.30;99.90
24085;DHT22;12268;52.110;5.548;2023-04-01T12:52:10;19.20;99.90
24085;DHT22;12268;52.110;5.548;2023-04-01T12:54:59;18.20;99.90
24085;DHT22;12268;52.110;5.548;2023-04-01T13:12:34;16.30;99.90
24085;DHT22;12268;52.110;5.548;2023-04-01T13:23:10;16.00;99.90
24085;DHT22;12268;52.110;5.548;2023-04-01T13:28:26;15.90;99.90
24085;DHT22;12268;52.110;5.548;2023-04-01T13:42:35;16.00;99.90
24085;DHT22;12268;52.110;5.548;2023-04-01T13:44:51;15.80;99.90
24085;DHT22;12268;52.110;5.548;2023-04-01T13:56:03;15.60;99.90
24085;DHT22;12268;52.110;5.548;2023-04-01T14:01:29;15.10;99.90
24085;DHT22;12268;52.110;5.548;2023-04-01T14:07:01;14.80;99.90
24085;DHT22;12268;52.110;5.548;2023-04-01T14:09:51;15.10;99.90
24085;DHT22;12268;52.110;5.548;2023-04-01T14:12:33;15.40;99.90
24085;DHT22;12268;52.110;5.548;2023-04-01T14:18:13;15.80;99.90
24085;DHT22;12268;52.110;5.548;2023-04-01T14:32:17;15.50;99.90
24085;DHT22;12268;52.110;5.548;2023-04-01T14:35:27;15.50;99.90
24085;DHT22;12268;52.110;5.548;2023-04-01T14:41:00;15.00;99.90
24085;DHT22;12268;52.110;5.548;2023-04-01T14:43:47;14.80;99.90
24085;DHT22;12268;52.110;5.548;2023-04-01T14:51:43;14.90;99.90
24085;DHT22;12268;52.110;5.548;2023-04-01T14:54:14;14.80;99.90
24085;DHT22;12268;52.110;5.548;2023-04-01T14:56:49;14.70;99.90
24085;DHT22;12268;52.110;5.548;2023-04-01T15:01:50;14.90;99.90
24085;DHT22;12268;52.110;5.548;2023-04-01T15:17:41;15.40;99.90
24085;DHT22;12268;52.110;5.548;2023-04-01T15:20:38;15.50;99.90
24085;DHT22;12268;52.110;5.548;2023-04-01T15:28:45;15.50;99.90
24085;DHT22;12268;52.110;5.548;2023-04-01T15:31:18;15.60;99.90
24085;DHT22;12268;52.110;5.548;2023-04-01T15:42:39;15.40;99.90
24085;DHT22;12268;52.110;5.548;2023-04-01T15:56:55;15.20;99.90
24085;DHT22;12268;52.110;5.548;2023-04-01T16:05:05;14.90;99.90
24085;DHT22;12268;52.110;5.548;2023-04-01T16:18:51;14.40;99.90
24085;DHT22;12268;52.110;5.548;2023-04-01T16:21:51;14.10;99.90
24085;DHT22;12268;52.110;5.548;2023-04-01T16:24:51;14.10;99.90
24085;DHT22;12268;52.110;5.548;2023-04-01T16:30:22;14.30;99.90
24085;DHT22;12268;52.110;5.548;2023-04-01T16:33:04;14.20;99.90
24085;DHT22;12268;52.110;5.548;2023-04-01T16:38:40;14.20;99.90
24085;DHT22;12268;52.110;5.548;2023-04-01T16:46:40;14.10;99.90
24085;DHT22;12268;52.110;5.548;2023-04-01T16:59:39;13.90;99.90
24085;DHT22;12268;52.110;5.548;2023-04-01T17:04:48;13.50;99.90
24085;DHT22;12268;52.110;5.548;2023-04-01T17:07:49;13.40;99.90
24085;DHT22;12268;52.110;5.548;2023-04-01T17:13:25;13.20;99.90
24085;DHT22;12268;52.110;5.548;2023-04-01T17:16:06;13.10;99.90
24085;DHT22;12268;52.110;5.548;2023-04-01T17:25:07;13.30;99.90
24085;DHT22;12268;52.110;5.548;2023-04-01T17:27:32;13.10;99.90
24085;DHT22;12268;52.110;5.548;2023-04-01T17:44:09;13.10;99.90
24085;DHT22;12268;52.110;5.548;2023-04-01T17:51:54;12.80;99.90
24085;DHT22;12268;52.110;5.548;2023-04-01T17:54:41;12.40;99.90
24085;DHT22;12268;52.110;5.548;2023-04-01T18:00:03;12.50;99.90
24085;DHT22;12268;52.110;5.548;2023-04-01T18:08:26;12.60;99.90
24085;DHT22;12268;52.110;5.548;2023-04-01T18:11:57;12.50;99.90
24085;DHT22;12268;52.110;5.548;2023-04-01T22:31:03;10.50;99.90
24085;DHT22;12268;52.110;5.548;2023-04-01T22:36:18;10.80;99.90
24085;DHT22;12268;52.110;5.548;2023-04-01T22:39:16;10.60;99.90
24085;DHT22;12268;52.110;5.548;2023-04-01T22:42:09;10.90;99.90
24085;DHT22;12268;52.110;5.548;2023-04-01T22:45:15;10.90;99.90
24085;DHT22;12268;52.110;5.548;2023-04-01T22:48:06;10.50;99.90
24085;DHT22;12268;52.110;5.548;2023-04-01T22:50:45;10.50;99.90
24085;DHT22;12268;52.110;5.548;2023-04-01T22:53:32;10.40;99.90
24085;DHT22;12268;52.110;5.548;2023-04-01T22:56:06;10.30;99.90
24085;DHT22;12268;52.110;5.548;2023-04-01T22:58:38;10.30;99.90
24085;DHT22;12268;52.110;5.548;2023-04-01T23:01:10;10.50;99.90
24085;DHT22;12268;52.110;5.548;2023-04-01T23:03:46;10.40;99.90
24085;DHT22;12268;52.110;5.548;2023-04-01T23:06:37;10.50;99.90
24085;DHT22;12268;52.110;5.548;2023-04-01T23:09:13;10.20;99.90
24085;DHT22;12268;52.110;5.548;2023-04-01T23:11:45;10.10;99.90
24085;DHT22;12268;52.110;5.548;2023-04-01T23:19:24;10.10;99.90
24085;DHT22;12268;52.110;5.548;2023-04-01T23:22:02;10.30;99.90
24085;DHT22;12268;52.110;5.548;2023-04-01T23:24:53;10.00;99.90
24085;DHT22;12268;52.110;5.548;2023-04-01T23:27:32;10.10;99.90
24085;DHT22;12268;52.110;5.548;2023-04-01T23:30:00;10.10;99.90
24085;DHT22;12268;52.110;5.548;2023-04-01T23:32:27;10.10;99.90
24085;DHT22;12268;52.110;5.548;2023-04-01T23:34:57;10.10;99.90
24085;DHT22;12268;52.110;5.548;2023-04-01T23:37:24;10.10;99.90
24085;DHT22;12268;52.110;5.548;2023-04-01T23:39:53;10.30;99.90
24085;DHT22;12268;52.110;5.548;2023-04-01T23:42:29;10.30;99.90
24085;DHT22;12268;52.110;5.548;2023-04-01T23:44:58;10.20;99.90
24085;DHT22;12268;52.110;5.548;2023-04-01T23:47:30;10.40;99.90
24085;DHT22;12268;52.110;5.548;2023-04-01T23:50:03;10.30;99.90
24085;DHT22;12268;52.110;5.548;2023-04-01T23:52:43;10.10;99.90
